Time;durP1;ratioP1;P1;durP2;ratioP2;P2;SDS_P1;SDS_P2;PMS_P1;PMS_P2;Temp;Humidity;BMP_temperature;BMP_pressure;BME280_temperature;BME280_humidity;BME280_pressure;Samples;Min_cycle;Max_cycle;Signal;HPM_P1;HPM_P2
2022/06/09 00:00:45;;;;;;;4.38;1.38;;;16.20;99.90;;;;;;5069786;28;20248;-71
2022/06/09 00:03:17;;;;;;;9.60;1.88;;;16.10;99.90;;;;;;5069638;28;20210;-71
2022/06/09 00:05:44;;;;;;;5.93;2.10;;;16.00;99.90;;;;;;5069812;28;20607;-71
2022/06/09 00:08:12;;;;;;;5.82;1.92;;;16.00;99.90;;;;;;5070459;28;20661;-70
2022/06/09 00:10:44;;;;;;;4.53;2.00;;;16.00;99.90;;;;;;5069971;28;20210;-70
2022/06/09 00:13:11;;;;;;;3.72;1.65;;;16.00;99.90;;;;;;5056906;28;20206;-71
2022/06/09 00:15:38;;;;;;;5.75;2.03;;;16.00;99.90;;;;;;5070116;28;20206;-70
2022/06/09 00:18:05;;;;;;;3.50;2.22;;;15.90;99.90;;;;;;5070078;28;20214;-70
2022/06/09 00:20:32;;;;;;;4.35;1.42;;;15.90;99.90;;;;;;5069800;28;20739;-69
2022/06/09 00:22:59;;;;;;;6.47;2.30;;;15.90;99.90;;;;;;5070329;28;20280;-70
2022/06/09 00:25:26;;;;;;;15.32;3.20;;;15.80;99.90;;;;;;5070415;28;20229;-71
2022/06/09 00:27:55;;;;;;;4.22;1.48;;;15.80;99.90;;;;;;5070609;28;20206;-71
2022/06/09 00:30:22;;;;;;;3.80;2.25;;;15.80;99.90;;;;;;5070584;28;20202;-68
2022/06/09 00:32:48;;;;;;;9.35;2.88;;;15.70;99.90;;;;;;5069368;28;20210;-68
2022/06/09 00:35:15;;;;;;;5.90;1.80;;;15.60;99.90;;;;;;5070271;28;20256;-69
2022/06/09 00:37:43;;;;;;;6.05;1.90;;;15.70;99.90;;;;;;5069997;28;20254;-69
2022/06/09 00:40:13;;;;;;;5.30;2.40;;;15.70;99.90;;;;;;5070007;28;20214;-69
2022/06/09 00:42:39;;;;;;;8.85;3.55;;;15.60;99.90;;;;;;5069574;28;20617;-69
2022/06/09 00:45:25;;;;;;;3.67;1.75;;;15.60;99.90;;;;;;5069954;28;20765;-69
2022/06/09 00:47:57;;;;;;;5.53;2.15;;;15.60;99.90;;;;;;5070165;28;20735;-68
2022/06/09 00:50:27;;;;;;;5.57;3.13;;;15.60;99.90;;;;;;5070022;28;20674;-68
2022/06/09 00:52:57;;;;;;;6.07;2.97;;;15.60;99.90;;;;;;5070099;28;20206;-69
2022/06/09 00:55:27;;;;;;;7.60;1.83;;;15.50;99.90;;;;;;5069817;28;20256;-69
2022/06/09 00:57:58;;;;;;;8.85;2.00;;;15.50;99.90;;;;;;5070001;28;20570;-69
2022/06/09 01:00:31;;;;;;;4.25;1.90;;;15.50;99.90;;;;;;5069700;28;20260;-69
2022/06/09 01:03:01;;;;;;;3.20;2.90;;;15.60;99.90;;;;;;5069621;28;20206;-69
2022/06/09 01:05:31;;;;;;;7.53;2.05;;;15.50;99.90;;;;;;5069368;28;20727;-69
2022/06/09 01:08:01;;;;;;;5.90;2.28;;;15.50;99.90;;;;;;5069707;28;20709;-69
2022/06/09 01:10:29;;;;;;;4.25;1.92;;;15.50;99.90;;;;;;5069279;28;20268;-69
2022/06/09 01:12:58;;;;;;;4.82;2.42;;;15.50;99.90;;;;;;5070474;28;20198;-69
2022/06/09 01:15:32;;;;;;;5.72;2.03;;;15.40;99.90;;;;;;5073265;28;20241;-69
2022/06/09 01:18:10;;;;;;;6.00;1.75;;;15.40;99.90;;;;;;5073416;28;20209;-68
2022/06/09 01:20:46;;;;;;;8.82;2.53;;;15.40;99.90;;;;;;5072874;28;20592;-69
2022/06/09 01:23:36;;;;;;;3.17;2.15;;;15.30;99.90;;;;;;5073148;28;20202;-68
2022/06/09 01:26:31;;;;;;;4.65;2.20;;;15.30;99.90;;;;;;5063103;28;20210;-68
2022/06/09 01:29:30;;;;;;;7.95;2.28;;;15.30;99.90;;;;;;5073140;28;20210;-70
2022/06/09 01:32:03;;;;;;;8.02;2.63;;;15.30;99.90;;;;;;5072955;28;20719;-71
2022/06/09 01:34:37;;;;;;;4.57;2.33;;;15.30;99.90;;;;;;5072694;28;20731;-70
2022/06/09 01:37:10;;;;;;;6.20;2.00;;;15.40;99.90;;;;;;5060269;28;20210;-71
2022/06/09 01:39:49;;;;;;;5.40;3.10;;;15.30;99.90;;;;;;5072524;28;20206;-71
2022/06/09 01:42:30;;;;;;;8.15;2.50;;;15.20;99.90;;;;;;5072917;28;20648;-69
2022/06/09 01:45:02;;;;;;;6.03;2.15;;;15.20;99.90;;;;;;5072609;28;20233;-69
2022/06/09 01:47:36;;;;;;;7.93;2.80;;;15.10;99.90;;;;;;5072513;28;20663;-69
2022/06/09 01:50:07;;;;;;;7.82;2.70;;;15.10;99.90;;;;;;5072556;28;20212;-70
2022/06/09 01:52:35;;;;;;;5.43;2.08;;;15.10;99.90;;;;;;5072625;28;20202;-69
2022/06/09 01:55:04;;;;;;;7.72;2.08;;;15.20;99.90;;;;;;5072797;28;20210;-69
2022/06/09 01:57:36;;;;;;;3.78;1.95;;;15.30;99.90;;;;;;5072314;28;20626;-68
2022/06/09 02:00:08;;;;;;;7.25;2.42;;;15.30;99.90;;;;;;5072340;28;20550;-68
2022/06/09 02:02:41;;;;;;;5.10;2.72;;;15.40;99.90;;;;;;5072048;28;20627;-68
2022/06/09 02:05:13;;;;;;;6.38;2.63;;;15.30;99.90;;;;;;5072473;28;20748;-69
2022/06/09 02:07:42;;;;;;;5.70;2.20;;;15.40;99.90;;;;;;5072136;28;20233;-69
2022/06/09 02:10:17;;;;;;;5.63;2.33;;;15.40;99.90;;;;;;5072482;28;20585;-69
2022/06/09 02:12:46;;;;;;;7.05;3.10;;;15.40;99.90;;;;;;5070851;28;20255;-69
2022/06/09 02:15:18;;;;;;;9.52;3.22;;;15.30;99.90;;;;;;5077414;28;20264;-69
2022/06/09 02:17:49;;;;;;;3.95;2.22;;;15.30;99.90;;;;;;5075596;28;20206;-69
2022/06/09 02:20:20;;;;;;;5.93;2.80;;;15.30;99.90;;;;;;5088006;28;20661;-69
2022/06/09 02:22:47;;;;;;;10.05;2.30;;;15.30;99.90;;;;;;5077795;28;20210;-69
2022/06/09 02:25:14;;;;;;;7.60;2.35;;;15.40;99.90;;;;;;5091646;28;20225;-69
2022/06/09 02:27:41;;;;;;;10.50;2.42;;;15.30;99.90;;;;;;5091756;28;20206;-67
2022/06/09 02:30:10;;;;;;;9.07;2.65;;;15.40;99.90;;;;;;5086338;28;20210;-69
2022/06/09 02:32:37;;;;;;;9.77;2.83;;;15.30;99.90;;;;;;5083958;28;20214;-68
2022/06/09 02:35:06;;;;;;;5.00;1.98;;;15.30;99.90;;;;;;5091973;28;20241;-69
2022/06/09 02:37:33;;;;;;;6.05;3.80;;;15.30;99.90;;;;;;5091988;28;20213;-67
2022/06/09 02:40:00;;;;;;;6.68;2.53;;;15.20;99.90;;;;;;5091657;28;20632;-68
2022/06/09 02:42:27;;;;;;;8.88;3.03;;;15.30;99.90;;;;;;5091672;28;20209;-68
2022/06/09 02:44:54;;;;;;;7.00;2.00;;;15.20;99.90;;;;;;5091988;28;20241;-68
2022/06/09 02:47:21;;;;;;;5.20;2.45;;;15.20;99.90;;;;;;5085505;28;20326;-67
2022/06/09 02:49:48;;;;;;;4.68;2.08;;;15.10;99.90;;;;;;5084379;28;20742;-68
2022/06/09 02:52:16;;;;;;;5.57;2.53;;;15.10;99.90;;;;;;5091701;28;20270;-68
2022/06/09 02:54:43;;;;;;;8.18;2.63;;;15.10;99.90;;;;;;5091390;28;20251;-68
2022/06/09 02:57:10;;;;;;;5.85;2.05;;;15.10;99.90;;;;;;5091604;28;20326;-69
2022/06/09 02:59:37;;;;;;;15.10;3.58;;;15.10;99.90;;;;;;5091678;28;20213;-68
2022/06/09 03:02:04;;;;;;;7.40;3.10;;;15.00;99.90;;;;;;5091542;28;20673;-68
2022/06/09 03:04:31;;;;;;;7.47;2.72;;;14.90;99.90;;;;;;5091137;28;20275;-69
2022/06/09 03:06:58;;;;;;;10.10;3.38;;;14.90;99.90;;;;;;5091413;28;20258;-69
2022/06/09 03:09:26;;;;;;;10.80;3.35;;;14.90;99.90;;;;;;5091633;28;20262;-69
2022/06/09 03:11:54;;;;;;;8.18;2.40;;;14.90;99.90;;;;;;5091817;28;20205;-69
2022/06/09 03:14:20;;;;;;;10.95;3.20;;;14.80;99.90;;;;;;5091690;28;20205;-69
2022/06/09 03:16:47;;;;;;;9.80;2.67;;;14.80;99.90;;;;;;5090916;28;20627;-69
2022/06/09 03:19:14;;;;;;;7.22;2.53;;;14.80;99.90;;;;;;5091236;28;20673;-69
2022/06/09 03:21:42;;;;;;;7.43;2.80;;;14.70;99.90;;;;;;5082292;28;20293;-69
2022/06/09 03:24:09;;;;;;;9.95;2.58;;;14.80;99.90;;;;;;5085778;28;20267;-70
2022/06/09 03:26:37;;;;;;;8.38;3.35;;;14.70;99.90;;;;;;5090777;28;20673;-70
2022/06/09 03:29:04;;;;;;;23.70;5.90;;;14.60;99.90;;;;;;5091415;28;20209;-70
2022/06/09 03:31:31;;;;;;;9.02;2.78;;;14.60;99.90;;;;;;5090671;28;20233;-69
2022/06/09 03:33:58;;;;;;;9.88;2.20;;;14.60;99.90;;;;;;5091139;28;20271;-69
2022/06/09 03:36:26;;;;;;;10.25;4.05;;;14.60;99.90;;;;;;5089919;28;20639;-69
2022/06/09 03:38:53;;;;;;;8.23;2.55;;;14.60;99.90;;;;;;5091229;28;20209;-68
2022/06/09 03:41:20;;;;;;;7.88;3.17;;;14.60;99.90;;;;;;5090764;28;20627;-67
2022/06/09 03:43:49;;;;;;;10.38;2.50;;;14.60;99.90;;;;;;5090641;28;20234;-70
2022/06/09 03:46:15;;;;;;;12.23;3.13;;;14.50;99.90;;;;;;5090800;28;20233;-70
2022/06/09 03:48:42;;;;;;;8.15;3.03;;;14.50;99.90;;;;;;5090519;28;20201;-70
2022/06/09 03:51:11;;;;;;;4.50;2.08;;;14.50;99.90;;;;;;5091027;28;20270;-70
2022/06/09 03:53:39;;;;;;;3.95;2.42;;;14.50;99.90;;;;;;5090060;28;20288;-74
2022/06/09 03:56:07;;;;;;;10.70;2.65;;;14.50;99.90;;;;;;5090830;28;20266;-69
2022/06/09 03:58:34;;;;;;;10.68;3.25;;;14.40;99.90;;;;;;5090367;28;20235;-69
2022/06/09 04:01:02;;;;;;;10.27;2.97;;;14.50;99.90;;;;;;5090760;28;20209;-69
2022/06/09 04:03:30;;;;;;;10.65;3.67;;;14.50;99.90;;;;;;5077792;28;20262;-68
2022/06/09 04:05:57;;;;;;;8.80;2.22;;;14.50;99.90;;;;;;5082456;28;20755;-68
2022/06/09 04:08:24;;;;;;;5.25;3.45;;;14.50;99.90;;;;;;5072987;28;20565;-69
2022/06/09 04:10:52;;;;;;;10.60;3.05;;;14.50;99.90;;;;;;5072731;28;20259;-69
2022/06/09 04:13:19;;;;;;;8.82;3.35;;;14.60;99.90;;;;;;5075332;28;20206;-68
2022/06/09 04:15:47;;;;;;;8.15;2.70;;;14.60;99.90;;;;;;5073685;28;20293;-69
2022/06/09 04:18:15;;;;;;;10.23;2.67;;;14.50;99.90;;;;;;5075661;28;20241;-68
2022/06/09 04:20:42;;;;;;;8.85;3.17;;;14.50;99.90;;;;;;5075706;28;20255;-68
2022/06/09 04:23:09;;;;;;;6.03;2.40;;;14.60;99.90;;;;;;5070646;28;20222;-69
2022/06/09 04:25:39;;;;;;;5.40;2.70;;;14.60;99.90;;;;;;5070139;28;20721;-68
2022/06/09 04:28:06;;;;;;;9.25;4.32;;;14.50;99.90;;;;;;5070389;28;20206;-68
2022/06/09 04:30:33;;;;;;;6.05;2.90;;;14.60;99.90;;;;;;5071092;28;20267;-68
2022/06/09 04:33:00;;;;;;;10.13;3.13;;;14.60;99.90;;;;;;5074388;28;20271;-68
2022/06/09 04:35:28;;;;;;;13.27;4.05;;;14.60;99.90;;;;;;5072300;28;20225;-69
2022/06/09 04:38:01;;;;;;;5.10;3.30;;;14.60;99.90;;;;;;5076285;28;20236;-69
2022/06/09 04:40:30;;;;;;;6.60;2.85;;;14.60;99.90;;;;;;5073083;28;20214;-69
2022/06/09 04:42:57;;;;;;;10.27;2.47;;;14.60;99.90;;;;;;5077810;28;20209;-69
2022/06/09 04:45:24;;;;;;;8.68;3.10;;;14.60;99.90;;;;;;5074945;28;20275;-69
2022/06/09 04:47:51;;;;;;;8.15;2.95;;;14.60;99.90;;;;;;5080030;28;20205;-69
2022/06/09 04:50:19;;;;;;;9.77;2.60;;;14.70;99.90;;;;;;5079619;28;20681;-67
2022/06/09 04:52:48;;;;;;;8.93;3.05;;;14.60;99.90;;;;;;5083695;28;20201;-68
2022/06/09 04:55:15;;;;;;;8.63;2.50;;;14.70;99.90;;;;;;5081599;28;20202;-68
2022/06/09 04:57:42;;;;;;;9.20;2.58;;;14.70;99.90;;;;;;5083664;28;20205;-68
2022/06/09 05:00:12;;;;;;;10.20;2.97;;;14.70;99.90;;;;;;5083515;28;20234;-68
2022/06/09 05:02:39;;;;;;;9.35;2.95;;;14.70;99.90;;;;;;5083688;28;20205;-69
2022/06/09 05:05:10;;;;;;;10.02;3.80;;;14.70;99.90;;;;;;5085358;28;20294;-69
2022/06/09 05:07:37;;;;;;;8.52;3.08;;;14.70;99.90;;;;;;5079678;28;20202;-69
2022/06/09 05:10:06;;;;;;;8.93;2.65;;;14.70;99.90;;;;;;5087287;28;20638;-67
2022/06/09 05:12:34;;;;;;;8.07;3.17;;;14.70;99.90;;;;;;5084254;28;20202;-68
2022/06/09 05:15:01;;;;;;;9.38;3.72;;;14.70;99.90;;;;;;5089514;28;20259;-71
2022/06/09 05:17:28;;;;;;;8.05;3.10;;;14.90;99.90;;;;;;5085103;28;20770;-69
2022/06/09 05:19:55;;;;;;;5.05;2.83;;;14.90;99.90;;;;;;5089992;28;20202;-70
2022/06/09 05:22:21;;;;;;;12.82;3.42;;;14.90;99.90;;;;;;5076112;28;20255;-70
2022/06/09 05:24:48;;;;;;;13.15;3.70;;;15.00;99.90;;;;;;5059967;28;20620;-70
2022/06/09 05:27:17;;;;;;;17.13;3.25;;;15.10;99.90;;;;;;5074122;28;20206;-69
2022/06/09 05:29:44;;;;;;;10.52;2.88;;;15.20;99.90;;;;;;5075244;28;20260;-70
2022/06/09 05:32:11;;;;;;;9.82;3.88;;;15.10;99.90;;;;;;5074814;28;20214;-70
2022/06/09 05:34:38;;;;;;;10.07;2.33;;;15.10;99.90;;;;;;5077542;28;20266;-70
2022/06/09 05:37:05;;;;;;;10.25;3.33;;;15.10;99.90;;;;;;5075910;28;20662;-68
2022/06/09 05:45:17;;;;;;;6.88;3.03;;;15.40;99.90;;;;;;5010056;28;20231;-68
2022/06/09 05:47:44;;;;;;;11.82;3.53;;;15.40;99.90;;;;;;5019427;28;20208;-69
2022/06/09 05:50:12;;;;;;;11.88;3.95;;;15.50;99.90;;;;;;5042450;28;20251;-68
2022/06/09 05:52:39;;;;;;;9.63;2.65;;;15.50;99.90;;;;;;5081466;28;20247;-68
2022/06/09 05:55:08;;;;;;;11.27;3.08;;;15.60;99.90;;;;;;5081442;28;20198;-69
2022/06/09 05:57:37;;;;;;;5.50;2.10;;;15.60;99.90;;;;;;5081643;28;20659;-69
2022/06/09 06:00:05;;;;;;;6.53;2.05;;;15.70;99.90;;;;;;5082328;28;20205;-69
2022/06/09 06:02:33;;;;;;;10.02;3.05;;;15.80;99.90;;;;;;5071257;28;20264;-72
2022/06/09 06:05:00;;;;;;;6.88;2.65;;;15.90;99.90;;;;;;5072157;28;20220;-70
2022/06/09 06:07:26;;;;;;;11.15;3.17;;;16.00;99.90;;;;;;5071906;28;20206;-70
2022/06/09 06:09:53;;;;;;;11.70;2.90;;;16.20;99.90;;;;;;5072749;28;20206;-70
2022/06/09 06:12:20;;;;;;;6.97;3.63;;;16.30;99.90;;;;;;5072584;28;20234;-71
2022/06/09 06:14:49;;;;;;;7.43;2.20;;;16.30;99.90;;;;;;5070090;28;20221;-70
2022/06/09 06:17:17;;;;;;;7.45;2.72;;;16.20;99.90;;;;;;5072286;28;20209;-70
2022/06/09 06:19:44;;;;;;;7.93;2.63;;;16.20;99.90;;;;;;5071753;28;20206;-70
2022/06/09 06:22:10;;;;;;;10.27;2.42;;;16.30;99.90;;;;;;5072195;28;20285;-70
2022/06/09 06:24:37;;;;;;;7.45;2.17;;;16.40;99.90;;;;;;5090593;28;20205;-70
2022/06/09 06:27:05;;;;;;;4.32;2.50;;;16.40;99.90;;;;;;5091815;28;20648;-70
2022/06/09 06:29:32;;;;;;;8.00;2.35;;;16.50;99.90;;;;;;5081579;28;20201;-70
2022/06/09 06:32:01;;;;;;;5.28;2.03;;;16.60;99.90;;;;;;5088612;28;20259;-71
2022/06/09 06:34:28;;;;;;;4.45;2.08;;;16.60;99.90;;;;;;5091595;28;20255;-71
2022/06/09 06:36:55;;;;;;;10.80;2.33;;;16.70;99.90;;;;;;5067391;28;20241;-69
2022/06/09 06:39:22;;;;;;;6.53;2.15;;;16.90;99.90;;;;;;5092369;28;20205;-68
2022/06/09 06:41:49;;;;;;;7.85;2.47;;;16.90;99.90;;;;;;5077727;28;20225;-70
2022/06/09 06:44:16;;;;;;;5.93;2.10;;;17.00;99.90;;;;;;5092136;28;20213;-70
2022/06/09 06:46:43;;;;;;;9.32;2.67;;;17.10;99.90;;;;;;5075426;28;20281;-69
2022/06/09 06:49:13;;;;;;;5.60;2.30;;;17.20;99.90;;;;;;5054159;28;20211;-69
2022/06/09 06:51:40;;;;;;;5.80;2.45;;;17.20;99.90;;;;;;5071119;28;20202;-69
2022/06/09 06:54:07;;;;;;;3.20;1.80;;;17.30;99.90;;;;;;5066997;28;20279;-69
2022/06/09 06:56:35;;;;;;;9.68;1.83;;;17.40;99.90;;;;;;5074547;28;20201;-70
2022/06/09 06:59:03;;;;;;;10.15;3.05;;;17.30;99.90;;;;;;5073811;28;20267;-71
2022/06/09 07:01:30;;;;;;;6.85;2.40;;;17.40;99.90;;;;;;5068798;28;20210;-70
2022/06/09 07:03:58;;;;;;;10.48;2.22;;;17.50;99.90;;;;;;5064042;28;20265;-69
2022/06/09 07:06:26;;;;;;;7.25;2.97;;;17.60;99.90;;;;;;5072347;28;20643;-72
2022/06/09 07:08:54;;;;;;;6.10;2.10;;;17.60;99.90;;;;;;5082878;28;20260;-72
2022/06/09 07:11:21;;;;;;;7.68;1.73;;;17.70;99.90;;;;;;5072492;28;20248;-70
2022/06/09 07:13:49;;;;;;;7.03;1.63;;;17.80;99.90;;;;;;5076201;28;20753;-70
2022/06/09 07:16:16;;;;;;;6.38;1.88;;;17.80;99.90;;;;;;5077137;28;20206;-71
2022/06/09 07:18:43;;;;;;;2.97;1.83;;;18.00;99.90;;;;;;5057375;28;20307;-69
2022/06/09 07:21:11;;;;;;;5.43;2.15;;;18.20;99.90;;;;;;5073364;28;20206;-69
2022/06/09 07:23:39;;;;;;;9.25;1.80;;;18.20;99.90;;;;;;5069966;28;20284;-69
2022/06/09 07:26:07;;;;;;;6.50;1.58;;;18.10;99.90;;;;;;5069901;28;20283;-69
2022/06/09 07:28:34;;;;;;;2.20;1.38;;;18.10;99.90;;;;;;5065857;28;20652;-68
2022/06/09 07:31:02;;;;;;;4.35;1.90;;;18.40;99.90;;;;;;5061243;28;20632;-69
2022/06/09 07:33:32;;;;;;;8.05;1.50;;;18.60;99.90;;;;;;5072706;28;20206;-68
2022/06/09 07:36:00;;;;;;;8.73;1.85;;;18.60;99.90;;;;;;5081734;28;20866;-69
2022/06/09 07:38:28;;;;;;;7.40;1.42;;;18.50;99.90;;;;;;5059661;28;20283;-71
2022/06/09 07:40:56;;;;;;;7.35;1.98;;;18.80;99.90;;;;;;5071803;28;20218;-69
2022/06/09 07:43:23;;;;;;;7.85;1.42;;;18.60;99.90;;;;;;5075729;28;20202;-69
2022/06/09 07:45:51;;;;;;;4.65;1.75;;;18.70;99.90;;;;;;5075810;28;20230;-70
2022/06/09 07:48:20;;;;;;;3.55;0.90;;;18.30;99.90;;;;;;5077384;28;20203;-70
2022/06/09 07:50:49;;;;;;;6.47;2.33;;;18.30;99.90;;;;;;5075502;28;20693;-70
2022/06/09 07:53:16;;;;;;;7.00;1.83;;;19.10;99.90;;;;;;5079668;28;20270;-69
2022/06/09 07:55:43;;;;;;;4.97;1.30;;;20.10;99.90;;;;;;5075991;28;20202;-70
2022/06/09 07:58:12;;;;;;;7.35;1.40;;;19.70;99.90;;;;;;5069966;28;20276;-70
2022/06/09 08:00:39;;;;;;;6.43;2.30;;;19.30;99.90;;;;;;5062687;28;20199;-69
2022/06/09 08:03:07;;;;;;;11.70;2.63;;;19.80;99.90;;;;;;5068961;28;20202;-70
2022/06/09 08:05:36;;;;;;;4.00;1.77;;;20.20;99.90;;;;;;5064504;28;20238;-69
2022/06/09 08:08:03;;;;;;;6.03;1.63;;;20.50;99.90;;;;;;5056475;28;20206;-70
2022/06/09 08:10:30;;;;;;;3.05;1.60;;;21.80;99.90;;;;;;5070130;28;20237;-69
2022/06/09 08:13:02;;;;;;;6.70;1.40;;;21.90;99.90;;;;;;5070294;28;20256;-70
2022/06/09 08:15:32;;;;;;;5.28;1.60;;;22.20;99.90;;;;;;5069837;28;20210;-70
2022/06/09 08:18:00;;;;;;;4.60;1.17;;;21.20;99.90;;;;;;5069867;28;20665;-69
2022/06/09 08:20:28;;;;;;;2.83;0.77;;;20.40;99.90;;;;;;5070448;28;20565;-69
2022/06/09 08:23:01;;;;;;;5.65;1.38;;;20.50;99.90;;;;;;5074551;28;20205;-70
2022/06/09 08:25:28;;;;;;;4.18;2.40;;;20.70;99.90;;;;;;5085163;28;20210;-70
2022/06/09 08:27:57;;;;;;;6.10;1.40;;;20.10;99.90;;;;;;5092316;28;20225;-70
2022/06/09 08:30:24;;;;;;;5.63;1.40;;;20.30;99.90;;;;;;5094770;28;20673;-70
2022/06/09 08:32:53;;;;;;;6.70;1.60;;;20.20;99.90;;;;;;5082410;28;20659;-69
2022/06/09 08:35:20;;;;;;;4.70;1.50;;;20.00;99.90;;;;;;5072146;28;20677;-68
2022/06/09 08:37:51;;;;;;;2.45;0.98;;;19.90;99.90;;;;;;5085788;28;20213;-69
2022/06/09 08:40:22;;;;;;;7.22;1.23;;;20.20;99.90;;;;;;5077062;28;20309;-69
2022/06/09 08:43:07;;;;;;;4.93;1.13;;;20.10;99.90;;;;;;5087655;28;20197;-68
2022/06/09 08:45:36;;;;;;;8.07;1.63;;;20.10;99.90;;;;;;5084274;28;20201;-70
2022/06/09 08:48:13;;;;;;;1.55;0.90;;;19.90;99.90;;;;;;5087020;28;20236;-69
2022/06/09 08:50:46;;;;;;;6.60;2.03;;;20.70;99.90;;;;;;5063270;28;20247;-69
2022/06/09 08:53:20;;;;;;;8.70;1.70;;;20.80;99.90;;;;;;5078511;28;20213;-69
2022/06/09 08:55:50;;;;;;;1.48;1.23;;;21.10;99.90;;;;;;5078196;28;20807;-70
2022/06/09 08:58:22;;;;;;;2.83;1.25;;;21.50;99.90;;;;;;5083436;28;20267;-69
2022/06/09 09:00:54;;;;;;;2.38;1.33;;;21.50;99.90;;;;;;5078539;28;20565;-68
2022/06/09 09:03:27;;;;;;;2.53;1.00;;;21.60;99.90;;;;;;5085723;28;20237;-69
2022/06/09 09:05:59;;;;;;;2.40;1.27;;;22.60;99.90;;;;;;5087185;28;20197;-68
2022/06/09 09:08:27;;;;;;;2.47;1.00;;;22.90;99.90;;;;;;5084596;28;20211;-69
2022/06/09 09:11:08;;;;;;;3.58;1.50;;;24.10;99.90;;;;;;5084904;28;20206;-70
2022/06/09 09:13:50;;;;;;;4.53;1.10;;;24.20;99.90;;;;;;5071732;28;20214;-70
2022/06/09 09:16:21;;;;;;;6.22;1.80;;;21.90;99.90;;;;;;5062712;28;20687;-69
2022/06/09 09:18:54;;;;;;;6.03;1.58;;;20.90;99.90;;;;;;5067653;28;20210;-69
2022/06/09 09:21:39;;;;;;;2.58;1.25;;;21.00;99.90;;;;;;5071573;28;20206;-69
2022/06/09 09:24:20;;;;;;;4.15;1.08;;;24.60;99.90;;;;;;5087419;28;20205;-69
2022/06/09 09:26:54;;;;;;;5.80;1.77;;;27.00;99.90;;;;;;5093080;28;20275;-70
2022/06/09 09:29:28;;;;;;;4.80;1.60;;;28.60;99.90;;;;;;5093548;28;20210;-70
2022/06/09 09:31:58;;;;;;;2.75;0.85;;;30.40;99.90;;;;;;5093411;28;20202;-70
2022/06/09 09:34:32;;;;;;;2.75;0.98;;;31.40;99.90;;;;;;5093107;28;20251;-69
2022/06/09 09:37:03;;;;;;;4.20;1.30;;;30.20;99.90;;;;;;5092741;28;20636;-70
2022/06/09 09:39:41;;;;;;;3.72;1.02;;;30.50;99.90;;;;;;5092843;28;20206;-70
2022/06/09 09:42:15;;;;;;;5.05;1.70;;;30.70;99.90;;;;;;5093224;28;20205;-71
2022/06/09 09:44:42;;;;;;;4.43;2.42;;;28.40;99.90;;;;;;5092776;28;20266;-70
2022/06/09 09:47:25;;;;;;;5.80;2.28;;;29.00;99.90;;;;;;5080593;28;20238;-70
2022/06/09 09:49:59;;;;;;;2.20;0.88;;;29.20;99.90;;;;;;5088026;28;20546;-70
2022/06/09 09:52:41;;;;;;;4.15;1.30;;;27.90;99.90;;;;;;5087587;28;20735;-70
2022/06/09 09:55:33;;;;;;;2.72;1.00;;;28.70;99.90;;;;;;5090675;28;20198;-70
2022/06/09 09:58:23;;;;;;;4.30;1.42;;;27.40;99.90;;;;;;5079464;28;20218;-70
2022/06/09 10:00:54;;;;;;;5.60;1.42;;;26.50;99.90;;;;;;5070266;28;20209;-70
2022/06/09 10:09:26;;;;;;;4.65;1.42;;;22.80;99.90;;;;;;5007056;28;20203;-70
2022/06/09 10:11:57;;;;;;;3.13;1.52;;;22.60;99.90;;;;;;5030831;28;20211;-70
2022/06/09 10:14:51;;;;;;;3.95;1.00;;;27.70;99.90;;;;;;5063580;28;20255;-71
2022/06/09 10:17:41;;;;;;;4.80;1.77;;;30.50;99.90;;;;;;5092378;28;20251;-70
2022/06/09 10:20:20;;;;;;;5.35;1.05;;;33.20;99.90;;;;;;5089939;28;20582;-70
2022/06/09 10:22:59;;;;;;;4.00;1.30;;;33.60;99.90;;;;;;5077742;28;20622;-70
2022/06/09 10:25:32;;;;;;;2.22;1.20;;;30.30;99.90;;;;;;5092604;28;20262;-70
2022/06/09 10:28:06;;;;;;;2.40;1.20;;;29.80;99.90;;;;;;5092163;28;20237;-71
2022/06/09 10:30:39;;;;;;;3.10;1.40;;;30.90;99.90;;;;;;5091890;28;20219;-70
2022/06/09 10:33:16;;;;;;;5.63;1.00;;;32.50;99.90;;;;;;5092251;28;20258;-69
2022/06/09 10:35:49;;;;;;;7.68;1.60;;;31.20;99.90;;;;;;5071041;28;20206;-70
2022/06/09 10:38:25;;;;;;;3.60;1.23;;;26.30;99.90;;;;;;5090935;28;20255;-69
2022/06/09 10:40:56;;;;;;;3.97;1.83;;;24.50;99.90;;;;;;5092201;28;20303;-70
2022/06/09 10:43:29;;;;;;;3.88;1.27;;;23.80;99.90;;;;;;5092304;28;20681;-69
2022/06/09 10:46:00;;;;;;;6.55;1.80;;;23.40;99.90;;;;;;5091615;28;20213;-70
2022/06/09 10:57:09;;;;;;;3.45;2.33;;;23.20;99.90;;;;;;5091559;28;20208;-69
2022/06/09 10:59:42;;;;;;;4.45;1.33;;;23.40;99.90;;;;;;5091252;28;20209;-70
2022/06/09 11:02:15;;;;;;;2.90;1.17;;;23.60;99.90;;;;;;5076857;28;20206;-71
2022/06/09 11:04:43;;;;;;;4.32;1.30;;;23.60;99.90;;;;;;5084623;28;20241;-72
2022/06/09 11:07:46;;;;;;;2.25;0.85;;;22.50;99.90;;;;;;5076224;28;20221;-71
2022/06/09 11:10:24;;;;;;;6.78;1.38;;;22.60;99.90;;;;;;5076771;28;20218;-70
2022/06/09 11:13:13;;;;;;;3.95;1.13;;;23.60;99.90;;;;;;5080725;28;20202;-71
2022/06/09 11:15:50;;;;;;;3.45;1.13;;;24.60;99.90;;;;;;5069444;28;20267;-71
2022/06/09 11:18:28;;;;;;;4.22;1.48;;;24.30;99.90;;;;;;5072135;28;20206;-69
2022/06/09 11:21:05;;;;;;;4.07;1.52;;;23.50;99.90;;;;;;5060584;28;20618;-69
2022/06/09 11:23:44;;;;;;;2.58;2.13;;;23.20;99.90;;;;;;5070877;28;20237;-70
2022/06/09 11:26:18;;;;;;;2.92;1.23;;;23.70;99.90;;;;;;5069815;28;20209;-70
2022/06/09 11:28:57;;;;;;;3.55;1.15;;;24.10;99.90;;;;;;5071511;28;20621;-70
2022/06/09 11:31:40;;;;;;;3.75;1.23;;;24.30;99.90;;;;;;5073584;28;20585;-71
2022/06/09 11:34:35;;;;;;;6.43;2.63;;;24.40;99.90;;;;;;5073806;28;20673;-72
2022/06/09 11:37:11;;;;;;;4.57;0.98;;;24.60;99.90;;;;;;5065253;28;20213;-69
2022/06/09 11:39:55;;;;;;;2.50;0.82;;;24.50;99.90;;;;;;5076572;28;20270;-75
2022/06/09 11:42:37;;;;;;;1.35;0.88;;;24.60;99.90;;;;;;5075963;28;20202;-74
2022/06/09 11:45:23;;;;;;;2.55;0.93;;;24.80;99.90;;;;;;5076362;28;20579;-70
2022/06/09 11:47:51;;;;;;;3.95;0.90;;;24.40;99.90;;;;;;5079620;28;20228;-70
2022/06/09 11:50:22;;;;;;;3.88;1.15;;;24.30;99.90;;;;;;5075999;28;20206;-69
2022/06/09 11:52:50;;;;;;;3.70;1.23;;;24.70;99.90;;;;;;5080363;28;20210;-70
2022/06/09 11:55:57;;;;;;;3.30;1.42;;;24.10;99.90;;;;;;5077220;28;20586;-71
2022/06/09 11:58:57;;;;;;;3.72;1.83;;;23.50;99.90;;;;;;5061769;28;20202;-72
2022/06/09 12:01:41;;;;;;;5.20;1.73;;;23.60;99.90;;;;;;5036963;28;20266;-71
2022/06/09 12:04:22;;;;;;;3.85;1.67;;;23.70;99.90;;;;;;5078048;28;20224;-68
2022/06/09 12:07:06;;;;;;;4.38;1.30;;;23.10;99.90;;;;;;5084582;28;20205;-69
2022/06/09 12:09:43;;;;;;;3.17;0.98;;;22.60;99.90;;;;;;5067509;28;20201;-71
2022/06/09 12:12:36;;;;;;;5.25;1.20;;;22.90;99.90;;;;;;5085351;28;20202;-71
2022/06/09 12:15:26;;;;;;;2.80;1.13;;;23.90;99.90;;;;;;5086652;28;20254;-71
2022/06/09 12:18:00;;;;;;;2.65;0.98;;;24.30;99.90;;;;;;5059286;28;20207;-71
2022/06/09 12:20:32;;;;;;;3.33;1.75;;;24.90;99.90;;;;;;5069922;28;20285;-70
2022/06/09 12:23:21;;;;;;;1.65;0.93;;;24.90;99.90;;;;;;5068638;28;20252;-70
2022/06/09 12:26:22;;;;;;;4.53;1.20;;;24.90;99.90;;;;;;5056781;28;20224;-70
2022/06/09 12:29:14;;;;;;;5.10;1.17;;;24.80;99.90;;;;;;5065823;28;20317;-70
2022/06/09 12:32:18;;;;;;;2.17;0.88;;;23.80;99.90;;;;;;5059470;28;20657;-70
2022/06/09 12:34:50;;;;;;;3.28;0.93;;;24.00;99.90;;;;;;5072479;28;20563;-70
2022/06/09 12:37:21;;;;;;;3.70;0.93;;;23.50;99.90;;;;;;5072668;28;20239;-69
2022/06/09 12:39:52;;;;;;;5.10;1.10;;;22.90;99.90;;;;;;5070000;28;20206;-71
2022/06/09 12:42:23;;;;;;;1.52;0.77;;;23.50;99.90;;;;;;5070896;28;20719;-72
2022/06/09 12:44:54;;;;;;;2.33;0.80;;;23.20;99.90;;;;;;5071168;28;20293;-72
2022/06/09 12:47:24;;;;;;;4.57;1.02;;;23.50;99.90;;;;;;5074899;28;20279;-73
2022/06/09 12:49:56;;;;;;;3.28;0.80;;;22.90;99.90;;;;;;5067227;28;20294;-75
2022/06/09 12:52:27;;;;;;;5.25;1.08;;;22.70;99.90;;;;;;5077334;28;20206;-72
2022/06/09 12:54:58;;;;;;;3.22;1.13;;;22.60;99.90;;;;;;5079827;28;20205;-72
2022/06/09 12:57:29;;;;;;;4.03;1.38;;;23.00;99.90;;;;;;5078718;28;20271;-73
2022/06/09 13:00:07;;;;;;;3.60;0.80;;;23.20;99.90;;;;;;5082480;28;20274;-70
2022/06/09 13:02:38;;;;;;;4.53;1.15;;;22.90;99.90;;;;;;5080370;28;20582;-72
2022/06/09 13:05:20;;;;;;;3.75;1.30;;;23.30;99.90;;;;;;5082716;28;20213;-73
2022/06/09 13:07:52;;;;;;;6.90;1.88;;;23.70;99.90;;;;;;5079082;28;20684;-72
2022/06/09 13:10:22;;;;;;;6.43;1.92;;;24.10;99.90;;;;;;5069543;28;20293;-69
2022/06/09 13:12:53;;;;;;;2.35;1.08;;;24.40;99.90;;;;;;5070918;28;20206;-70
2022/06/09 13:15:40;;;;;;;2.22;1.23;;;24.40;99.90;;;;;;5089035;28;20201;-70
2022/06/09 13:18:16;;;;;;;3.08;1.00;;;24.90;99.90;;;;;;5073122;28;20209;-70
2022/06/09 13:20:51;;;;;;;4.38;1.00;;;24.70;99.90;;;;;;5088738;28;20201;-71
2022/06/09 13:23:19;;;;;;;1.70;0.90;;;24.70;99.90;;;;;;5073792;28;20237;-72
2022/06/09 13:25:47;;;;;;;2.67;1.13;;;24.80;99.90;;;;;;5073202;28;20237;-68
2022/06/09 13:28:31;;;;;;;3.65;1.45;;;25.00;99.90;;;;;;5074283;28;21190;-71